Time;durP1;ratioP1;P1;durP2;ratioP2;P2;SDS_P1;SDS_P2;PMS_P1;PMS_P2;Temp;Humidity;BMP_temperature;BMP_pressure;BME280_temperature;BME280_humidity;BME280_pressure;Samples;Min_cycle;Max_cycle;Signal;HPM_P1;HPM_P2
2022/03/28 00:01:27;;;;;;;13.57;12.20;;;7.70;99.90;;;;;;5047856;28;20760;-80
2022/03/28 00:03:54;;;;;;;13.10;11.90;;;7.70;99.90;;;;;;5049404;28;20670;-80
2022/03/28 00:06:21;;;;;;;13.63;11.43;;;7.50;99.90;;;;;;5037295;28;20663;-80
2022/03/28 00:08:49;;;;;;;13.20;11.93;;;7.80;99.90;;;;;;5047428;28;20586;-80
2022/03/28 00:11:17;;;;;;;15.43;13.83;;;7.70;99.90;;;;;;5046012;28;20665;-79
2022/03/28 00:13:44;;;;;;;15.50;12.70;;;7.90;99.90;;;;;;5048094;28;21145;-80
2022/03/28 00:16:12;;;;;;;18.57;12.60;;;7.50;99.90;;;;;;5049337;28;20994;-80
2022/03/28 00:18:40;;;;;;;14.67;11.67;;;7.70;99.90;;;;;;5049832;28;20633;-80
2022/03/28 00:21:07;;;;;;;14.80;12.30;;;7.20;99.90;;;;;;5047730;28;20646;-80
2022/03/28 00:23:34;;;;;;;16.33;12.17;;;7.90;99.90;;;;;;5043874;28;20639;-80
2022/03/28 00:26:01;;;;;;;24.43;11.93;;;7.60;99.90;;;;;;5046088;28;21170;-80
2022/03/28 00:28:27;;;;;;;14.10;12.70;;;7.20;99.90;;;;;;5046629;28;20642;-80
2022/03/28 00:30:54;;;;;;;15.00;11.40;;;7.10;99.90;;;;;;5053359;28;20992;-80
2022/03/28 00:33:21;;;;;;;14.50;13.07;;;7.00;99.90;;;;;;5049332;28;20993;-80
2022/03/28 00:35:49;;;;;;;13.77;12.27;;;7.20;99.90;;;;;;5049390;28;21287;-80
2022/03/28 00:38:16;;;;;;;14.73;12.80;;;7.00;99.90;;;;;;5049943;28;20637;-80
2022/03/28 00:40:43;;;;;;;15.67;13.00;;;7.10;99.90;;;;;;5047516;28;20682;-80
2022/03/28 00:43:10;;;;;;;14.77;13.37;;;7.00;99.90;;;;;;5050366;28;20633;-80
2022/03/28 00:45:38;;;;;;;14.07;12.73;;;7.40;99.90;;;;;;5050278;28;20630;-80
2022/03/28 00:48:07;;;;;;;13.73;12.57;;;6.90;99.90;;;;;;5047367;28;20676;-80
2022/03/28 00:50:34;;;;;;;14.37;13.00;;;7.30;99.90;;;;;;5050409;28;20664;-80
2022/03/28 00:53:05;;;;;;;14.63;13.27;;;7.10;99.90;;;;;;5045867;28;21282;-80
2022/03/28 00:55:33;;;;;;;14.80;13.07;;;7.20;99.90;;;;;;5049958;28;20614;-80
2022/03/28 00:57:59;;;;;;;14.47;13.00;;;7.00;99.90;;;;;;5048778;28;20634;-80
2022/03/28 01:00:26;;;;;;;17.03;12.93;;;7.00;99.90;;;;;;5057087;28;20660;-80
2022/03/28 01:02:53;;;;;;;14.93;13.07;;;7.30;99.90;;;;;;5046920;28;20644;-80
2022/03/28 01:05:20;;;;;;;13.10;11.90;;;6.80;99.90;;;;;;5048284;28;21070;-80
2022/03/28 01:07:47;;;;;;;12.77;11.60;;;7.20;99.90;;;;;;5046604;28;20660;-80
2022/03/28 01:10:15;;;;;;;13.37;12.07;;;6.80;99.90;;;;;;5047412;28;20650;-80
2022/03/28 01:12:43;;;;;;;14.70;13.20;;;7.20;99.90;;;;;;5049489;28;21206;-80
2022/03/28 01:15:11;;;;;;;14.03;12.03;;;6.60;99.90;;;;;;5047121;28;20638;-80
2022/03/28 01:20:26;;;;;;;13.87;12.30;;;7.10;99.90;;;;;;5037355;28;20641;-80
2022/03/28 01:22:54;;;;;;;15.70;12.40;;;6.80;99.90;;;;;;5047019;28;20637;-79
2022/03/28 01:25:24;;;;;;;14.23;12.37;;;6.50;99.90;;;;;;5046978;28;21176;-80
2022/03/28 01:27:52;;;;;;;16.83;12.73;;;6.30;99.90;;;;;;5047409;28;20705;-80
2022/03/28 01:30:19;;;;;;;13.93;12.53;;;6.80;99.90;;;;;;5052593;28;20708;-80
2022/03/28 01:32:46;;;;;;;14.27;12.10;;;6.80;99.90;;;;;;5051289;28;20631;-80
2022/03/28 01:35:13;;;;;;;13.17;11.87;;;6.30;99.90;;;;;;5050190;28;20634;-80
2022/03/28 01:37:40;;;;;;;14.13;11.57;;;6.40;99.90;;;;;;5050267;28;21478;-80
2022/03/28 01:40:09;;;;;;;13.80;12.30;;;6.70;99.90;;;;;;5048494;28;20645;-80
2022/03/28 01:42:36;;;;;;;14.40;11.80;;;6.70;99.90;;;;;;5050191;28;20618;-80
2022/03/28 01:45:03;;;;;;;13.37;11.97;;;6.60;99.90;;;;;;5049367;28;20959;-80
2022/03/28 01:47:30;;;;;;;13.23;12.03;;;6.40;99.90;;;;;;5047829;28;20673;-80
2022/03/28 01:49:56;;;;;;;14.37;13.00;;;6.50;99.90;;;;;;5045784;28;20659;-80
2022/03/28 01:52:23;;;;;;;19.03;12.53;;;6.40;99.90;;;;;;5046106;28;20636;-80
2022/03/28 01:54:50;;;;;;;19.40;12.53;;;6.50;99.90;;;;;;5048940;28;20636;-80
2022/03/28 01:57:18;;;;;;;14.03;12.60;;;6.40;99.90;;;;;;5045771;28;20617;-80
2022/03/28 01:59:45;;;;;;;14.67;12.80;;;6.50;99.90;;;;;;5046820;28;21220;-80
2022/03/28 02:02:11;;;;;;;15.30;12.80;;;6.40;99.90;;;;;;5048114;28;20625;-80
2022/03/28 02:04:38;;;;;;;14.37;12.97;;;6.40;99.90;;;;;;5049927;28;20629;-80
2022/03/28 02:07:05;;;;;;;16.90;14.17;;;5.80;99.90;;;;;;5054874;28;20684;-80
2022/03/28 02:09:31;;;;;;;15.77;14.17;;;6.20;99.90;;;;;;5050127;28;20650;-80
2022/03/28 02:11:58;;;;;;;14.83;13.43;;;6.20;99.90;;;;;;5049954;28;21180;-80
2022/03/28 02:14:26;;;;;;;15.53;13.73;;;5.80;99.90;;;;;;5050097;28;20634;-80
2022/03/28 02:16:53;;;;;;;16.07;14.40;;;6.10;99.90;;;;;;5049674;28;20735;-80
2022/03/28 02:19:20;;;;;;;16.70;13.70;;;6.30;99.90;;;;;;5040052;28;20645;-80
2022/03/28 02:21:47;;;;;;;16.37;13.90;;;6.10;99.90;;;;;;5052564;28;20628;-79
2022/03/28 02:24:13;;;;;;;15.13;13.63;;;5.70;99.90;;;;;;5051172;28;20660;-80
2022/03/28 02:26:40;;;;;;;14.80;13.40;;;5.70;99.90;;;;;;5047339;28;20625;-80
2022/03/28 02:29:07;;;;;;;15.07;13.03;;;5.70;99.90;;;;;;5047737;28;21126;-80
2022/03/28 02:31:35;;;;;;;15.00;13.50;;;6.10;99.90;;;;;;5053881;28;20656;-82
2022/03/28 02:34:02;;;;;;;14.60;13.20;;;6.20;99.90;;;;;;5047813;28;20614;-81
2022/03/28 02:36:28;;;;;;;15.27;13.50;;;5.40;99.90;;;;;;5050061;28;20629;-81
2022/03/28 02:38:55;;;;;;;17.80;13.53;;;5.70;99.90;;;;;;5048302;28;20636;-81
2022/03/28 02:41:22;;;;;;;16.50;14.93;;;5.80;99.90;;;;;;5046792;28;20664;-79
2022/03/28 02:43:49;;;;;;;16.57;14.00;;;5.40;99.90;;;;;;5048119;28;20626;-79
2022/03/28 02:46:16;;;;;;;15.60;14.10;;;5.60;99.90;;;;;;5049560;28;21002;-80
2022/03/28 02:48:44;;;;;;;16.23;14.63;;;5.90;99.90;;;;;;5047859;28;20680;-80
2022/03/28 02:51:11;;;;;;;18.63;14.50;;;5.70;99.90;;;;;;5052454;28;21130;-80
2022/03/28 02:53:38;;;;;;;18.13;15.03;;;5.20;99.90;;;;;;5046862;28;21013;-80
2022/03/28 02:56:05;;;;;;;15.47;13.90;;;5.20;99.90;;;;;;5048838;28;20687;-80
2022/03/28 02:58:32;;;;;;;16.13;14.43;;;5.70;99.90;;;;;;5047133;28;20907;-79
2022/03/28 03:00:59;;;;;;;15.73;14.03;;;5.00;99.90;;;;;;5047681;28;21307;-80
2022/03/28 03:03:25;;;;;;;16.00;14.40;;;5.20;99.90;;;;;;5047801;28;20633;-80
2022/03/28 03:05:53;;;;;;;15.83;14.13;;;5.60;99.90;;;;;;5049649;28;21078;-80
2022/03/28 03:08:20;;;;;;;16.10;14.50;;;5.00;99.90;;;;;;5052190;28;20693;-80
2022/03/28 03:10:47;;;;;;;15.87;14.27;;;5.20;99.90;;;;;;5045744;28;21013;-80
2022/03/28 03:13:13;;;;;;;15.70;14.10;;;5.30;99.90;;;;;;5048748;28;20637;-80
2022/03/28 03:15:40;;;;;;;17.23;15.30;;;5.20;99.90;;;;;;5047391;28;20714;-80
2022/03/28 03:18:07;;;;;;;14.63;12.87;;;5.30;99.90;;;;;;5046383;28;21153;-80
2022/03/28 03:20:34;;;;;;;17.10;15.30;;;5.20;99.90;;;;;;5047605;28;20757;-80
2022/03/28 03:23:02;;;;;;;15.70;14.20;;;5.20;99.90;;;;;;5048342;28;20626;-79
2022/03/28 03:25:29;;;;;;;16.53;14.80;;;5.30;99.90;;;;;;5046562;28;20645;-79
2022/03/28 03:27:57;;;;;;;16.97;15.17;;;5.20;99.90;;;;;;5048479;28;20670;-80
2022/03/28 03:30:24;;;;;;;17.73;16.03;;;5.00;99.90;;;;;;5049737;28;20662;-80
2022/03/28 03:32:51;;;;;;;17.47;14.90;;;5.20;99.90;;;;;;5048343;28;20631;-80
2022/03/28 03:35:18;;;;;;;14.33;12.93;;;4.80;99.90;;;;;;5050441;28;20634;-79
2022/03/28 03:37:45;;;;;;;16.60;14.40;;;4.90;99.90;;;;;;5046392;28;20659;-81
2022/03/28 03:40:13;;;;;;;17.33;15.70;;;4.90;99.90;;;;;;5048805;28;20709;-79
2022/03/28 03:42:41;;;;;;;16.80;15.10;;;5.20;99.90;;;;;;5047219;28;21001;-79
2022/03/28 03:45:09;;;;;;;15.43;13.93;;;4.90;99.90;;;;;;5048296;28;20644;-81
2022/03/28 03:47:36;;;;;;;16.47;14.87;;;5.20;99.90;;;;;;5048974;28;20712;-81
2022/03/28 03:50:04;;;;;;;17.13;15.33;;;4.70;99.90;;;;;;5046742;28;20668;-81
2022/03/28 03:52:31;;;;;;;18.63;16.67;;;4.60;99.90;;;;;;5048428;28;21189;-80
2022/03/28 03:54:58;;;;;;;21.47;18.80;;;5.00;99.90;;;;;;5049009;28;20985;-80
2022/03/28 03:57:26;;;;;;;23.80;21.20;;;5.00;99.90;;;;;;5048723;28;20796;-80
2022/03/28 03:59:53;;;;;;;33.40;29.80;;;4.90;99.90;;;;;;5049704;28;20667;-80
2022/03/28 04:02:20;;;;;;;32.10;28.73;;;4.90;99.90;;;;;;5052434;28;20610;-80
2022/03/28 04:04:46;;;;;;;58.80;51.53;;;5.00;99.90;;;;;;5050224;28;20960;-80
2022/03/28 04:07:13;;;;;;;82.80;69.90;;;4.80;99.90;;;;;;5049590;28;21046;-80
2022/03/28 04:09:41;;;;;;;72.80;63.77;;;5.00;99.90;;;;;;5046398;28;20653;-80
2022/03/28 04:12:09;;;;;;;52.37;46.63;;;4.30;99.90;;;;;;5048436;28;20645;-80
2022/03/28 04:14:37;;;;;;;41.77;36.20;;;4.80;99.90;;;;;;5050086;28;20973;-80
2022/03/28 04:17:04;;;;;;;36.17;32.03;;;4.70;99.90;;;;;;5046919;28;20654;-80
2022/03/28 04:19:31;;;;;;;29.00;25.83;;;4.90;99.90;;;;;;5040169;28;21218;-80
2022/03/28 04:21:58;;;;;;;29.53;26.50;;;4.50;99.90;;;;;;5049688;28;21185;-80
2022/03/28 04:24:25;;;;;;;29.70;24.93;;;4.30;99.90;;;;;;5044510;28;21000;-80
2022/03/28 04:26:51;;;;;;;20.50;18.40;;;4.20;99.90;;;;;;5046203;28;20619;-80
2022/03/28 04:29:18;;;;;;;22.53;17.10;;;4.80;99.90;;;;;;5044799;28;20664;-80
2022/03/28 04:31:46;;;;;;;22.47;20.07;;;4.80;99.90;;;;;;5047795;28;20756;-80
2022/03/28 04:34:13;;;;;;;21.97;18.67;;;4.40;99.90;;;;;;5046254;28;20986;-80
2022/03/28 04:36:40;;;;;;;19.77;17.77;;;4.40;99.90;;;;;;5050145;28;20635;-80
2022/03/28 04:39:07;;;;;;;17.67;16.07;;;4.70;99.90;;;;;;5047710;28;21011;-80
2022/03/28 04:41:33;;;;;;;16.00;14.40;;;4.40;99.90;;;;;;5049843;28;20685;-80
2022/03/28 04:44:00;;;;;;;16.20;14.67;;;4.20;99.90;;;;;;5046721;28;20644;-79
2022/03/28 04:46:27;;;;;;;15.50;13.90;;;4.10;99.90;;;;;;5047320;28;20637;-80
2022/03/28 04:48:55;;;;;;;15.73;14.33;;;4.60;99.90;;;;;;5046265;28;20694;-80
2022/03/28 04:51:22;;;;;;;16.97;15.27;;;4.40;99.90;;;;;;5047126;28;20660;-80
2022/03/28 04:53:48;;;;;;;17.53;14.67;;;4.50;99.90;;;;;;5049261;28;20635;-80
2022/03/28 04:56:15;;;;;;;15.37;13.87;;;4.40;99.90;;;;;;5047146;28;20628;-80
2022/03/28 04:58:42;;;;;;;19.33;14.13;;;4.20;99.90;;;;;;5047954;28;20631;-80
2022/03/28 05:01:09;;;;;;;16.03;14.63;;;4.60;99.90;;;;;;5046700;28;20648;-79
2022/03/28 05:03:36;;;;;;;17.43;14.60;;;4.50;99.90;;;;;;5048382;28;21020;-80
2022/03/28 05:06:04;;;;;;;15.57;14.00;;;4.50;99.90;;;;;;5053073;28;20633;-81
2022/03/28 05:08:31;;;;;;;16.50;14.80;;;4.40;99.90;;;;;;5051805;28;20685;-82
2022/03/28 05:10:58;;;;;;;16.33;14.73;;;4.30;99.90;;;;;;5050088;28;21246;-79
2022/03/28 05:13:25;;;;;;;16.23;14.53;;;4.40;99.90;;;;;;5056026;28;20635;-79
2022/03/28 05:15:52;;;;;;;19.57;14.87;;;4.40;99.90;;;;;;5052511;28;21087;-81
2022/03/28 05:18:19;;;;;;;15.00;13.50;;;4.50;99.90;;;;;;5050598;28;21027;-81
2022/03/28 05:20:46;;;;;;;15.27;13.83;;;4.40;99.90;;;;;;5053678;28;20668;-80
2022/03/28 05:23:14;;;;;;;15.20;13.70;;;4.60;99.90;;;;;;5049931;28;20632;-80
2022/03/28 05:25:41;;;;;;;17.77;14.33;;;4.60;99.90;;;;;;5052617;28;20634;-80
2022/03/28 05:28:08;;;;;;;15.97;14.40;;;4.20;99.90;;;;;;5051680;28;20670;-80
2022/03/28 05:30:34;;;;;;;16.77;14.90;;;4.30;99.90;;;;;;5058276;28;20667;-79
2022/03/28 05:33:02;;;;;;;16.10;14.60;;;4.70;99.90;;;;;;5048801;28;20629;-80
2022/03/28 05:35:30;;;;;;;15.53;13.50;;;4.60;99.90;;;;;;5050675;28;20619;-80
2022/03/28 05:37:57;;;;;;;15.97;14.30;;;4.60;99.90;;;;;;5052486;28;20640;-80
2022/03/28 05:40:25;;;;;;;16.87;14.27;;;4.50;99.90;;;;;;5050302;28;20665;-80
2022/03/28 05:42:52;;;;;;;15.67;14.17;;;4.70;99.90;;;;;;5048475;28;21192;-80
2022/03/28 05:45:18;;;;;;;18.97;13.50;;;4.70;99.90;;;;;;5051769;28;20627;-80
2022/03/28 05:47:45;;;;;;;20.87;15.57;;;4.50;99.90;;;;;;5050845;28;21264;-80
2022/03/28 05:50:12;;;;;;;25.47;16.20;;;4.70;99.90;;;;;;5053039;28;20655;-80
2022/03/28 05:52:39;;;;;;;20.07;16.03;;;4.80;99.90;;;;;;5051386;28;20643;-80
2022/03/28 05:55:07;;;;;;;18.63;15.17;;;4.90;99.90;;;;;;5053181;28;21178;-80
2022/03/28 05:57:35;;;;;;;16.47;14.70;;;4.80;99.90;;;;;;5050488;28;20703;-81
2022/03/28 06:00:05;;;;;;;23.03;16.50;;;5.00;99.90;;;;;;5055558;28;21034;-81
2022/03/28 06:02:32;;;;;;;19.30;14.53;;;4.80;99.90;;;;;;5051012;28;20667;-81
2022/03/28 06:04:59;;;;;;;16.40;13.20;;;5.10;99.90;;;;;;5046439;28;20628;-81
2022/03/28 06:07:25;;;;;;;17.63;13.83;;;4.80;99.90;;;;;;5052249;28;21230;-81
2022/03/28 06:09:52;;;;;;;17.20;14.90;;;5.20;99.90;;;;;;5050449;28;20682;-81
2022/03/28 06:12:19;;;;;;;15.80;14.20;;;5.10;99.90;;;;;;5054092;28;20723;-82
2022/03/28 06:14:47;;;;;;;22.43;16.13;;;5.40;99.90;;;;;;5052493;28;20640;-81
2022/03/28 06:17:21;;;;;;;16.70;14.27;;;4.80;99.90;;;;;;5051305;28;20637;-80
2022/03/28 06:19:47;;;;;;;16.80;15.07;;;5.10;99.90;;;;;;5049401;28;20649;-81
2022/03/28 06:22:14;;;;;;;17.93;15.47;;;5.20;99.90;;;;;;5050274;28;21239;-81
2022/03/28 06:24:41;;;;;;;21.67;15.27;;;5.70;99.90;;;;;;5046111;28;20715;-81
2022/03/28 06:27:08;;;;;;;18.03;15.00;;;5.80;99.90;;;;;;5054089;28;21206;-81
2022/03/28 06:29:35;;;;;;;17.83;16.00;;;5.90;99.90;;;;;;5054334;28;20683;-81
2022/03/28 06:32:03;;;;;;;22.37;15.67;;;5.90;99.90;;;;;;5047989;28;20638;-81
2022/03/28 06:34:31;;;;;;;17.30;15.37;;;6.00;99.90;;;;;;5051367;28;20690;-81
2022/03/28 06:36:58;;;;;;;20.27;15.53;;;6.20;99.90;;;;;;5049096;28;20718;-81
2022/03/28 06:39:25;;;;;;;17.07;14.80;;;6.10;99.90;;;;;;5048844;28;20724;-81
2022/03/28 06:41:51;;;;;;;16.87;15.27;;;6.20;99.90;;;;;;5050945;28;20633;-81
2022/03/28 06:44:18;;;;;;;17.83;15.70;;;6.30;99.90;;;;;;5048765;28;20980;-81
2022/03/28 06:46:45;;;;;;;20.87;15.00;;;6.00;99.90;;;;;;5049818;28;20681;-81
2022/03/28 06:49:13;;;;;;;18.30;15.57;;;6.10;99.90;;;;;;5047088;28;20711;-80
2022/03/28 06:51:40;;;;;;;23.30;16.33;;;6.20;99.90;;;;;;5048586;28;20629;-79
2022/03/28 06:54:08;;;;;;;27.33;22.90;;;6.60;99.90;;;;;;5048275;28;20616;-79
2022/03/28 06:56:36;;;;;;;18.07;16.27;;;6.60;99.90;;;;;;5050341;28;21260;-80
2022/03/28 06:59:02;;;;;;;22.20;14.93;;;6.50;99.90;;;;;;5049206;28;20622;-82
2022/03/28 07:01:29;;;;;;;16.33;14.63;;;6.60;99.90;;;;;;5048425;28;20661;-80
2022/03/28 07:03:56;;;;;;;18.83;15.73;;;6.90;99.90;;;;;;5050631;28;20626;-80
2022/03/28 07:06:24;;;;;;;19.57;16.30;;;6.80;99.90;;;;;;5046331;28;21153;-81
2022/03/28 07:08:52;;;;;;;17.23;15.50;;;6.70;99.90;;;;;;5047877;28;21027;-81
2022/03/28 07:11:19;;;;;;;24.10;14.70;;;7.10;99.60;;;;;;5049987;28;20809;-81
2022/03/28 07:13:46;;;;;;;20.93;15.37;;;7.50;98.70;;;;;;5049742;28;20712;-80
2022/03/28 07:16:12;;;;;;;16.77;14.97;;;7.10;98.60;;;;;;5049767;28;20633;-80
2022/03/28 07:18:40;;;;;;;18.73;15.43;;;7.90;98.40;;;;;;5049344;28;20656;-80
2022/03/28 07:21:07;;;;;;;16.23;14.70;;;8.00;98.00;;;;;;5053180;28;21166;-80
2022/03/28 07:23:36;;;;;;;17.93;15.77;;;7.80;97.70;;;;;;5046965;28;20645;-80
2022/03/28 07:26:03;;;;;;;18.43;16.07;;;7.80;97.60;;;;;;5044532;28;20643;-79
2022/03/28 07:28:30;;;;;;;17.93;14.93;;;7.90;97.50;;;;;;5039769;28;20644;-80
2022/03/28 07:30:56;;;;;;;16.90;14.77;;;7.60;97.30;;;;;;5027013;28;20627;-82
2022/03/28 07:33:24;;;;;;;16.87;15.13;;;8.00;97.00;;;;;;5047021;28;21000;-81
2022/03/28 07:35:52;;;;;;;18.13;16.13;;;8.40;96.60;;;;;;5043589;28;20728;-80
2022/03/28 07:38:19;;;;;;;18.50;15.50;;;8.70;96.20;;;;;;5039612;28;21164;-81
2022/03/28 07:40:48;;;;;;;20.97;14.47;;;8.60;95.60;;;;;;5038877;28;21224;-80
2022/03/28 07:43:16;;;;;;;20.43;16.03;;;9.00;95.20;;;;;;5036845;28;20628;-81
2022/03/28 07:45:43;;;;;;;18.37;14.87;;;8.80;94.60;;;;;;5040385;28;21175;-80
2022/03/28 07:48:09;;;;;;;16.23;14.50;;;9.00;94.50;;;;;;5037144;28;20633;-81
2022/03/28 07:50:36;;;;;;;15.83;14.27;;;9.20;94.20;;;;;;5039804;28;21557;-81
2022/03/28 07:53:03;;;;;;;17.17;15.57;;;9.00;94.00;;;;;;5037745;28;21185;-81
2022/03/28 07:55:30;;;;;;;18.00;16.40;;;9.30;93.80;;;;;;5028753;28;20631;-81
2022/03/28 07:58:02;;;;;;;18.40;15.57;;;9.50;93.30;;;;;;5040319;28;20640;-80
2022/03/28 08:00:30;;;;;;;14.90;13.40;;;9.50;93.10;;;;;;5044841;28;21271;-80
2022/03/28 08:02:57;;;;;;;16.80;15.00;;;9.80;92.80;;;;;;5035783;28;20626;-81
2022/03/28 08:05:24;;;;;;;18.77;15.37;;;9.60;92.30;;;;;;5037954;28;21168;-81
2022/03/28 08:07:52;;;;;;;16.50;14.67;;;10.10;92.00;;;;;;5036345;28;20680;-80
2022/03/28 08:10:19;;;;;;;15.67;14.07;;;10.40;91.70;;;;;;5042358;28;20720;-81
2022/03/28 08:12:46;;;;;;;20.13;15.03;;;10.30;91.20;;;;;;5040716;28;20631;-80
2022/03/28 08:15:16;;;;;;;18.63;15.27;;;10.30;91.00;;;;;;5036380;28;20997;-81
2022/03/28 08:17:43;;;;;;;19.00;15.63;;;10.60;90.90;;;;;;5043453;28;20633;-81
2022/03/28 08:20:12;;;;;;;18.10;15.50;;;10.20;90.60;;;;;;5047417;28;20658;-81
2022/03/28 08:22:44;;;;;;;20.53;16.47;;;10.70;90.80;;;;;;5037405;28;20676;-80
2022/03/28 08:25:11;;;;;;;20.23;15.77;;;10.90;90.50;;;;;;5035895;28;20672;-79
2022/03/28 08:27:37;;;;;;;17.70;14.30;;;11.00;90.10;;;;;;5042972;28;20625;-81
2022/03/28 08:30:05;;;;;;;17.87;14.93;;;10.90;89.80;;;;;;5037803;28;20669;-81
2022/03/28 08:32:34;;;;;;;18.10;15.83;;;11.30;89.50;;;;;;5034957;28;20634;-82
2022/03/28 08:35:03;;;;;;;16.80;15.17;;;11.50;89.40;;;;;;5032817;28;20684;-81
2022/03/28 08:37:31;;;;;;;16.17;14.13;;;11.60;88.90;;;;;;5049711;28;20629;-81
2022/03/28 08:39:59;;;;;;;19.37;15.57;;;11.80;88.10;;;;;;5040877;28;20646;-81
2022/03/28 08:42:26;;;;;;;18.90;14.10;;;12.00;87.60;;;;;;5043358;28;20648;-81
2022/03/28 08:44:53;;;;;;;18.33;14.80;;;12.10;87.00;;;;;;5041436;28;20627;-81
2022/03/28 08:47:23;;;;;;;19.00;14.23;;;12.30;86.60;;;;;;5043851;28;20746;-81
2022/03/28 08:49:53;;;;;;;17.80;14.27;;;12.40;86.10;;;;;;5052589;28;21202;-81
2022/03/28 08:52:20;;;;;;;21.57;14.10;;;12.50;85.70;;;;;;5045158;28;20967;-79
2022/03/28 08:54:49;;;;;;;19.47;14.70;;;12.60;85.10;;;;;;5036773;28;21048;-81
2022/03/28 08:57:16;;;;;;;18.90;15.20;;;12.80;84.90;;;;;;5040174;28;20996;-81
2022/03/28 08:59:43;;;;;;;17.20;14.57;;;12.90;84.00;;;;;;5040719;28;20649;-81
2022/03/28 09:02:32;;;;;;;16.60;14.87;;;13.10;84.40;;;;;;5042380;28;20652;-81
2022/03/28 09:05:00;;;;;;;18.13;14.57;;;13.20;83.40;;;;;;5044783;28;20653;-81
2022/03/28 09:07:28;;;;;;;20.63;15.13;;;13.40;83.50;;;;;;5041807;28;20622;-81
2022/03/28 09:09:59;;;;;;;17.63;15.27;;;13.60;83.50;;;;;;5040070;28;21082;-81
2022/03/28 09:12:25;;;;;;;19.23;14.90;;;13.60;82.40;;;;;;5041547;28;20983;-81
2022/03/28 09:14:57;;;;;;;17.27;14.80;;;13.80;81.90;;;;;;5038705;28;20618;-81
2022/03/28 09:17:25;;;;;;;20.87;14.90;;;14.00;81.60;;;;;;5044491;28;20645;-81
2022/03/28 09:19:55;;;;;;;21.33;16.03;;;14.20;81.30;;;;;;5041849;28;20649;-81
2022/03/28 09:22:25;;;;;;;16.80;14.53;;;14.20;80.00;;;;;;5041737;28;20651;-81
2022/03/28 09:24:53;;;;;;;20.70;17.90;;;14.40;80.10;;;;;;5039259;28;20618;-81
2022/03/28 09:27:22;;;;;;;20.10;16.77;;;14.50;79.10;;;;;;5040625;28;20634;-81
2022/03/28 09:30:00;;;;;;;20.73;15.70;;;14.60;77.30;;;;;;5043005;28;20677;-81
2022/03/28 09:32:28;;;;;;;20.00;16.60;;;14.70;76.00;;;;;;5035618;28;20727;-81
2022/03/28 09:35:09;;;;;;;19.30;15.63;;;14.90;76.00;;;;;;5040806;28;20641;-81
2022/03/28 09:38:02;;;;;;;21.60;15.50;;;15.00;75.10;;;;;;5036263;28;20636;-81
2022/03/28 09:40:35;;;;;;;20.13;17.70;;;15.20;75.50;;;;;;5046855;28;20681;-81
2022/03/28 09:43:04;;;;;;;20.60;15.63;;;15.30;74.50;;;;;;5036950;28;20677;-80
2022/03/28 09:45:33;;;;;;;19.27;16.03;;;15.50;74.40;;;;;;5029631;28;21060;-81
2022/03/28 09:48:01;;;;;;;21.53;15.30;;;15.60;74.20;;;;;;5040733;28;20636;-81
2022/03/28 09:50:34;;;;;;;22.20;16.60;;;15.70;74.60;;;;;;5048157;28;20684;-80
2022/03/28 09:53:17;;;;;;;19.97;16.20;;;15.80;73.40;;;;;;5037414;28;21103;-80
2022/03/28 09:55:53;;;;;;;18.00;14.77;;;16.10;73.50;;;;;;5037475;28;20630;-80
2022/03/28 09:58:42;;;;;;;20.00;15.40;;;16.30;74.00;;;;;;5044640;28;20620;-80
2022/03/28 10:01:19;;;;;;;22.37;16.97;;;16.50;71.80;;;;;;5042506;28;20978;-80
2022/03/28 10:03:48;;;;;;;22.33;13.47;;;16.80;72.70;;;;;;5042574;28;20641;-81
2022/03/28 10:06:16;;;;;;;21.53;16.23;;;17.10;70.20;;;;;;5039312;28;21062;-81
2022/03/28 10:08:45;;;;;;;24.37;16.47;;;17.30;70.20;;;;;;5040854;28;20661;-81
2022/03/28 10:11:12;;;;;;;17.73;15.67;;;17.40;68.60;;;;;;5041805;28;21103;-81
2022/03/28 10:13:39;;;;;;;31.70;15.23;;;17.50;66.80;;;;;;5039811;28;20641;-80
2022/03/28 10:16:09;;;;;;;23.07;17.20;;;17.80;67.80;;;;;;5037745;28;20985;-80
2022/03/28 10:18:39;;;;;;;20.57;14.70;;;18.00;65.70;;;;;;5050233;28;20658;-81
2022/03/28 10:21:09;;;;;;;22.03;16.07;;;18.20;65.30;;;;;;5042367;28;21343;-80
2022/03/28 10:23:42;;;;;;;20.60;16.17;;;18.50;63.60;;;;;;5040988;28;20644;-82
2022/03/28 10:26:12;;;;;;;18.10;16.30;;;18.70;62.90;;;;;;5039998;28;20610;-81
2022/03/28 10:28:39;;;;;;;19.07;16.67;;;19.00;61.90;;;;;;5030985;28;20678;-81
2022/03/28 10:31:18;;;;;;;20.33;15.90;;;19.20;60.30;;;;;;5035136;28;20705;-81
2022/03/28 10:33:49;;;;;;;18.37;15.77;;;19.30;60.10;;;;;;5042789;28;20692;-81
2022/03/28 10:36:27;;;;;;;20.53;17.30;;;19.60;59.70;;;;;;5046706;28;20634;-81
2022/03/28 10:38:57;;;;;;;19.53;16.73;;;19.80;58.50;;;;;;5039077;28;20641;-80
2022/03/28 10:41:27;;;;;;;22.57;16.90;;;20.00;57.90;;;;;;5037868;28;20684;-80
2022/03/28 10:44:04;;;;;;;20.43;15.53;;;20.30;57.60;;;;;;5040956;28;20638;-81
2022/03/28 10:46:35;;;;;;;19.00;15.37;;;20.60;57.10;;;;;;5042178;28;21637;-80
2022/03/28 10:49:03;;;;;;;18.30;15.83;;;20.80;55.80;;;;;;5041304;28;20672;-80
2022/03/28 10:51:31;;;;;;;19.20;17.20;;;21.10;55.70;;;;;;5035767;28;21246;-80
2022/03/28 10:54:01;;;;;;;18.13;15.60;;;21.40;55.40;;;;;;5043555;28;20630;-80
2022/03/28 10:56:32;;;;;;;19.30;15.67;;;21.60;55.40;;;;;;5038159;28;20657;-81
2022/03/28 10:59:01;;;;;;;18.10;15.97;;;21.90;54.50;;;;;;5037174;28;21311;-79
2022/03/28 11:01:30;;;;;;;18.40;15.73;;;22.10;52.50;;;;;;5041081;28;20630;-82
2022/03/28 11:04:16;;;;;;;20.40;16.73;;;22.40;51.70;;;;;;5027787;28;20693;-80
2022/03/28 11:06:52;;;;;;;21.60;15.67;;;22.60;51.30;;;;;;5043286;28;20636;-79
2022/03/28 11:09:43;;;;;;;16.30;14.70;;;23.00;50.80;;;;;;5041811;28;20647;-80
2022/03/28 11:12:14;;;;;;;16.47;14.77;;;23.30;49.60;;;;;;5039409;28;20728;-80
2022/03/28 11:14:44;;;;;;;18.73;15.73;;;23.60;48.00;;;;;;5037250;28;20622;-81
2022/03/28 11:17:15;;;;;;;20.90;15.47;;;23.70;47.10;;;;;;5040550;28;20876;-81
2022/03/28 11:20:08;;;;;;;17.30;15.60;;;24.20;47.60;;;;;;5043469;28;20685;-81
2022/03/28 11:22:50;;;;;;;17.47;15.47;;;24.60;46.00;;;;;;5047259;28;20990;-81
2022/03/28 11:25:42;;;;;;;19.33;15.80;;;24.90;44.20;;;;;;5041265;28;20611;-81
2022/03/28 11:28:16;;;;;;;17.20;14.83;;;24.90;43.70;;;;;;5040861;28;20625;-81
2022/03/28 11:30:58;;;;;;;20.30;15.07;;;25.10;43.00;;;;;;5036764;28;20666;-81
2022/03/28 11:33:33;;;;;;;18.00;16.20;;;25.40;42.80;;;;;;5035462;28;20646;-82
2022/03/28 11:36:02;;;;;;;17.07;15.30;;;25.50;42.30;;;;;;5041886;28;20633;-81
2022/03/28 11:38:32;;;;;;;18.70;17.00;;;25.50;41.00;;;;;;5041382;28;20713;-81
2022/03/28 11:41:00;;;;;;;17.03;15.40;;;25.60;40.90;;;;;;5041246;28;20619;-81
2022/03/28 11:43:33;;;;;;;17.80;16.20;;;25.60;40.00;;;;;;5041292;28;20658;-81
2022/03/28 11:46:02;;;;;;;19.27;17.00;;;25.90;39.60;;;;;;5043371;28;20969;-81
2022/03/28 11:48:29;;;;;;;19.47;16.10;;;26.20;38.20;;;;;;5044199;28;20626;-81
2022/03/28 11:50:57;;;;;;;18.07;16.47;;;26.60;38.40;;;;;;5042758;28;20649;-82
2022/03/28 11:53:24;;;;;;;18.70;16.90;;;26.80;38.60;;;;;;5041275;28;21217;-81
2022/03/28 11:55:53;;;;;;;16.73;14.33;;;27.10;37.10;;;;;;5047036;28;20630;-80
2022/03/28 11:58:30;;;;;;;16.53;14.93;;;27.50;36.00;;;;;;5039018;28;20626;-81
2022/03/28 12:01:07;;;;;;;17.73;16.03;;;27.70;36.30;;;;;;5038209;28;20606;-79
2022/03/28 12:03:34;;;;;;;17.70;15.90;;;28.20;35.20;;;;;;5031612;28;21148;-80
2022/03/28 12:06:01;;;;;;;17.30;15.70;;;28.60;33.90;;;;;;5039103;28;20625;-80
2022/03/28 12:08:30;;;;;;;18.77;16.90;;;28.50;33.10;;;;;;5034953;28;20649;-80
2022/03/28 12:10:58;;;;;;;19.63;17.03;;;28.80;33.00;;;;;;5037053;28;20670;-81
2022/03/28 12:13:25;;;;;;;18.23;16.47;;;29.00;33.00;;;;;;5038309;28;20637;-81
2022/03/28 12:15:55;;;;;;;17.10;15.40;;;29.30;32.20;;;;;;5039504;28;20667;-80
2022/03/28 12:18:23;;;;;;;19.97;18.00;;;29.50;33.20;;;;;;5039589;28;21042;-81
2022/03/28 12:20:52;;;;;;;22.33;20.30;;;30.00;33.50;;;;;;5036369;28;22329;-80
2022/03/28 12:23:20;;;;;;;20.43;18.53;;;30.30;33.10;;;;;;5038695;28;20626;-80
2022/03/28 12:25:48;;;;;;;24.40;18.37;;;30.50;33.00;;;;;;5047114;28;20700;-81
2022/03/28 12:28:16;;;;;;;19.47;17.20;;;30.50;32.70;;;;;;5038047;28;20645;-82
2022/03/28 12:30:47;;;;;;;19.63;17.70;;;30.40;32.60;;;;;;5044800;28;20764;-81
2022/03/28 12:33:17;;;;;;;18.60;16.70;;;30.50;32.80;;;;;;5045994;28;20632;-82
2022/03/28 12:35:46;;;;;;;19.50;17.50;;;30.50;32.10;;;;;;5046335;28;20614;-81
2022/03/28 12:38:17;;;;;;;19.63;17.90;;;30.60;32.40;;;;;;5045250;28;21111;-81
2022/03/28 12:40:46;;;;;;;19.70;17.77;;;30.50;31.70;;;;;;5046105;28;20610;-80
2022/03/28 12:43:14;;;;;;;20.30;18.50;;;30.70;31.50;;;;;;5047129;28;20717;-81